sensor_id;sensor_type;location;lat;lon;timestamp;temperature;humidity
360;DHT22;168;48.872;9.226;2022-09-09T00:00:00;16.70;93.00
360;DHT22;168;48.872;9.226;2022-09-09T00:02:28;16.80;93.00
360;DHT22;168;48.872;9.226;2022-09-09T00:04:59;16.80;93.00
360;DHT22;168;48.872;9.226;2022-09-09T00:07:36;16.80;93.00
360;DHT22;168;48.872;9.226;2022-09-09T00:10:16;16.90;92.90
360;DHT22;168;48.872;9.226;2022-09-09T00:12:57;16.90;92.90
360;DHT22;168;48.872;9.226;2022-09-09T00:15:31;16.90;92.70
360;DHT22;168;48.872;9.226;2022-09-09T00:18:07;17.00;92.70
360;DHT22;168;48.872;9.226;2022-09-09T00:20:43;17.00;92.70
360;DHT22;168;48.872;9.226;2022-09-09T00:23:17;17.00;92.70
360;DHT22;168;48.872;9.226;2022-09-09T00:25:51;17.00;92.70
360;DHT22;168;48.872;9.226;2022-09-09T00:28:20;17.00;92.80
360;DHT22;168;48.872;9.226;2022-09-09T00:30:49;17.10;92.60
360;DHT22;168;48.872;9.226;2022-09-09T00:33:20;17.10;92.60
360;DHT22;168;48.872;9.226;2022-09-09T00:35:50;17.10;92.60
360;DHT22;168;48.872;9.226;2022-09-09T00:38:24;17.10;92.50
360;DHT22;168;48.872;9.226;2022-09-09T00:40:55;17.10;92.50
360;DHT22;168;48.872;9.226;2022-09-09T00:43:29;17.10;92.60
360;DHT22;168;48.872;9.226;2022-09-09T00:46:21;17.10;92.60
360;DHT22;168;48.872;9.226;2022-09-09T00:48:57;17.10;92.70
360;DHT22;168;48.872;9.226;2022-09-09T00:51:34;17.10;92.70
360;DHT22;168;48.872;9.226;2022-09-09T00:54:20;17.00;92.80
360;DHT22;168;48.872;9.226;2022-09-09T00:57:00;17.00;92.80
360;DHT22;168;48.872;9.226;2022-09-09T00:59:36;17.10;92.40
360;DHT22;168;48.872;9.226;2022-09-09T01:02:13;17.10;92.40
360;DHT22;168;48.872;9.226;2022-09-09T01:04:42;17.20;92.50
360;DHT22;168;48.872;9.226;2022-09-09T01:07:15;17.20;92.40
360;DHT22;168;48.872;9.226;2022-09-09T01:09:52;17.30;92.40
360;DHT22;168;48.872;9.226;2022-09-09T01:12:28;17.30;92.20
360;DHT22;168;48.872;9.226;2022-09-09T01:15:03;17.30;92.20
360;DHT22;168;48.872;9.226;2022-09-09T01:17:44;17.30;92.30
360;DHT22;168;48.872;9.226;2022-09-09T01:20:15;17.30;92.20
360;DHT22;168;48.872;9.226;2022-09-09T01:22:57;17.30;92.30
360;DHT22;168;48.872;9.226;2022-09-09T01:25:56;17.30;92.30
360;DHT22;168;48.872;9.226;2022-09-09T01:28:31;17.40;92.40
360;DHT22;168;48.872;9.226;2022-09-09T01:31:02;17.40;92.40
360;DHT22;168;48.872;9.226;2022-09-09T01:33:30;17.40;92.30
360;DHT22;168;48.872;9.226;2022-09-09T01:36:00;17.50;92.30
360;DHT22;168;48.872;9.226;2022-09-09T01:38:30;17.50;92.20
360;DHT22;168;48.872;9.226;2022-09-09T01:41:00;17.50;92.20
360;DHT22;168;48.872;9.226;2022-09-09T01:43:28;17.50;92.10
360;DHT22;168;48.872;9.226;2022-09-09T01:45:59;17.60;91.60
360;DHT22;168;48.872;9.226;2022-09-09T01:48:27;17.60;91.60
360;DHT22;168;48.872;9.226;2022-09-09T01:50:55;17.50;91.70
360;DHT22;168;48.872;9.226;2022-09-09T01:53:23;17.60;91.60
360;DHT22;168;48.872;9.226;2022-09-09T01:56:02;17.60;91.60
360;DHT22;168;48.872;9.226;2022-09-09T01:58:37;17.50;91.50
360;DHT22;168;48.872;9.226;2022-09-09T02:01:14;17.60;91.40
360;DHT22;168;48.872;9.226;2022-09-09T02:03:47;17.60;91.40
360;DHT22;168;48.872;9.226;2022-09-09T02:06:25;17.50;91.50
360;DHT22;168;48.872;9.226;2022-09-09T02:08:56;17.50;91.60
360;DHT22;168;48.872;9.226;2022-09-09T02:11:27;17.50;91.50
360;DHT22;168;48.872;9.226;2022-09-09T02:13:57;17.40;91.70
360;DHT22;168;48.872;9.226;2022-09-09T02:16:30;17.50;91.40
360;DHT22;168;48.872;9.226;2022-09-09T02:19:02;17.40;91.40
360;DHT22;168;48.872;9.226;2022-09-09T02:21:33;17.40;91.50
360;DHT22;168;48.872;9.226;2022-09-09T02:24:05;17.30;91.50
360;DHT22;168;48.872;9.226;2022-09-09T02:26:39;17.30;91.60
360;DHT22;168;48.872;9.226;2022-09-09T02:29:12;17.20;91.80
360;DHT22;168;48.872;9.226;2022-09-09T02:31:42;17.20;92.00
360;DHT22;168;48.872;9.226;2022-09-09T02:34:13;17.10;92.20
360;DHT22;168;48.872;9.226;2022-09-09T02:36:43;17.10;92.20
360;DHT22;168;48.872;9.226;2022-09-09T02:39:11;17.00;92.30
360;DHT22;168;48.872;9.226;2022-09-09T02:41:41;17.00;92.00
360;DHT22;168;48.872;9.226;2022-09-09T02:44:10;16.90;92.00
360;DHT22;168;48.872;9.226;2022-09-09T02:46:54;16.90;92.20
360;DHT22;168;48.872;9.226;2022-09-09T02:49:28;16.90;92.40
360;DHT22;168;48.872;9.226;2022-09-09T02:52:02;16.80;92.40
360;DHT22;168;48.872;9.226;2022-09-09T02:54:33;16.70;92.50
360;DHT22;168;48.872;9.226;2022-09-09T02:57:08;16.60;92.80
360;DHT22;168;48.872;9.226;2022-09-09T02:59:37;16.60;92.70
360;DHT22;168;48.872;9.226;2022-09-09T03:02:05;16.60;92.90
360;DHT22;168;48.872;9.226;2022-09-09T03:04:33;16.50;92.90
360;DHT22;168;48.872;9.226;2022-09-09T03:07:00;16.50;93.00
360;DHT22;168;48.872;9.226;2022-09-09T03:09:29;16.50;93.10
360;DHT22;168;48.872;9.226;2022-09-09T03:11:58;16.50;93.10
360;DHT22;168;48.872;9.226;2022-09-09T03:14:27;16.40;93.10
360;DHT22;168;48.872;9.226;2022-09-09T03:16:55;16.50;93.20
360;DHT22;168;48.872;9.226;2022-09-09T03:19:24;16.50;93.10
360;DHT22;168;48.872;9.226;2022-09-09T03:21:51;16.50;93.10
360;DHT22;168;48.872;9.226;2022-09-09T03:24:19;16.40;93.20
360;DHT22;168;48.872;9.226;2022-09-09T03:26:47;16.30;93.40
360;DHT22;168;48.872;9.226;2022-09-09T03:29:14;16.30;93.50
360;DHT22;168;48.872;9.226;2022-09-09T03:31:44;16.20;93.40
360;DHT22;168;48.872;9.226;2022-09-09T03:34:12;16.20;93.40
360;DHT22;168;48.872;9.226;2022-09-09T03:36:40;16.20;93.40
360;DHT22;168;48.872;9.226;2022-09-09T03:39:07;16.20;93.40
360;DHT22;168;48.872;9.226;2022-09-09T03:41:34;16.20;93.50
360;DHT22;168;48.872;9.226;2022-09-09T03:44:03;16.20;93.40
360;DHT22;168;48.872;9.226;2022-09-09T03:46:30;16.20;93.50
360;DHT22;168;48.872;9.226;2022-09-09T03:48:59;16.10;93.50
360;DHT22;168;48.872;9.226;2022-09-09T03:51:27;16.00;93.50
360;DHT22;168;48.872;9.226;2022-09-09T03:53:54;16.00;93.60
360;DHT22;168;48.872;9.226;2022-09-09T03:56:22;15.90;93.70
360;DHT22;168;48.872;9.226;2022-09-09T03:58:50;15.90;93.70
360;DHT22;168;48.872;9.226;2022-09-09T04:01:17;15.90;93.80
360;DHT22;168;48.872;9.226;2022-09-09T04:03:45;15.90;93.80
360;DHT22;168;48.872;9.226;2022-09-09T04:06:14;15.90;93.80
360;DHT22;168;48.872;9.226;2022-09-09T04:08:43;16.00;93.60
360;DHT22;168;48.872;9.226;2022-09-09T04:11:11;16.00;93.70
360;DHT22;168;48.872;9.226;2022-09-09T04:13:38;16.00;93.70
360;DHT22;168;48.872;9.226;2022-09-09T04:16:07;16.10;93.70
360;DHT22;168;48.872;9.226;2022-09-09T04:18:36;16.20;93.70
360;DHT22;168;48.872;9.226;2022-09-09T04:21:03;16.20;93.70
360;DHT22;168;48.872;9.226;2022-09-09T04:23:34;16.30;93.70
360;DHT22;168;48.872;9.226;2022-09-09T04:26:04;16.30;93.50
360;DHT22;168;48.872;9.226;2022-09-09T04:28:33;16.30;93.50
360;DHT22;168;48.872;9.226;2022-09-09T04:31:04;16.40;93.50
360;DHT22;168;48.872;9.226;2022-09-09T04:33:34;16.40;93.50
360;DHT22;168;48.872;9.226;2022-09-09T04:36:03;16.40;93.40
360;DHT22;168;48.872;9.226;2022-09-09T04:38:30;16.50;93.10
360;DHT22;168;48.872;9.226;2022-09-09T04:40:59;16.50;93.20
360;DHT22;168;48.872;9.226;2022-09-09T04:43:27;16.50;93.10
360;DHT22;168;48.872;9.226;2022-09-09T04:45:59;16.50;93.30
360;DHT22;168;48.872;9.226;2022-09-09T04:48:29;16.50;93.20
360;DHT22;168;48.872;9.226;2022-09-09T04:50:59;16.40;93.50
360;DHT22;168;48.872;9.226;2022-09-09T04:53:27;16.40;93.50
360;DHT22;168;48.872;9.226;2022-09-09T04:56:03;16.50;93.30
360;DHT22;168;48.872;9.226;2022-09-09T04:58:30;16.50;93.50
360;DHT22;168;48.872;9.226;2022-09-09T05:01:04;16.50;93.50
360;DHT22;168;48.872;9.226;2022-09-09T05:03:31;16.50;93.50
360;DHT22;168;48.872;9.226;2022-09-09T05:06:04;16.50;93.50
360;DHT22;168;48.872;9.226;2022-09-09T05:08:32;16.50;93.50
360;DHT22;168;48.872;9.226;2022-09-09T05:10:59;16.60;93.50
360;DHT22;168;48.872;9.226;2022-09-09T05:13:28;16.60;93.30
360;DHT22;168;48.872;9.226;2022-09-09T05:15:57;16.60;93.30
360;DHT22;168;48.872;9.226;2022-09-09T05:18:25;16.60;93.50
360;DHT22;168;48.872;9.226;2022-09-09T05:20:52;16.60;93.50
360;DHT22;168;48.872;9.226;2022-09-09T05:23:19;16.60;93.50
360;DHT22;168;48.872;9.226;2022-09-09T05:25:55;16.60;93.50
360;DHT22;168;48.872;9.226;2022-09-09T05:28:23;16.60;93.50
360;DHT22;168;48.872;9.226;2022-09-09T05:31:04;16.80;93.30
360;DHT22;168;48.872;9.226;2022-09-09T05:33:34;16.80;93.20
360;DHT22;168;48.872;9.226;2022-09-09T05:36:04;16.80;93.10
360;DHT22;168;48.872;9.226;2022-09-09T05:38:32;16.90;93.10
360;DHT22;168;48.872;9.226;2022-09-09T05:41:00;17.00;93.00
360;DHT22;168;48.872;9.226;2022-09-09T05:43:29;17.00;93.10
360;DHT22;168;48.872;9.226;2022-09-09T05:46:03;17.10;93.00
360;DHT22;168;48.872;9.226;2022-09-09T05:48:32;17.20;92.80
360;DHT22;168;48.872;9.226;2022-09-09T05:51:04;17.30;92.60
360;DHT22;168;48.872;9.226;2022-09-09T05:53:33;17.40;92.50
360;DHT22;168;48.872;9.226;2022-09-09T05:56:01;17.40;92.40
360;DHT22;168;48.872;9.226;2022-09-09T05:58:30;17.50;92.20
360;DHT22;168;48.872;9.226;2022-09-09T06:01:07;17.60;92.00
360;DHT22;168;48.872;9.226;2022-09-09T06:03:38;17.60;91.80
360;DHT22;168;48.872;9.226;2022-09-09T06:06:07;17.70;91.70
360;DHT22;168;48.872;9.226;2022-09-09T06:08:36;17.80;91.60
360;DHT22;168;48.872;9.226;2022-09-09T06:11:05;17.90;91.60
360;DHT22;168;48.872;9.226;2022-09-09T06:13:33;18.00;91.10
360;DHT22;168;48.872;9.226;2022-09-09T06:16:06;18.10;91.00
360;DHT22;168;48.872;9.226;2022-09-09T06:18:35;18.20;90.90
360;DHT22;168;48.872;9.226;2022-09-09T06:21:04;18.30;90.60
360;DHT22;168;48.872;9.226;2022-09-09T06:23:33;18.40;90.60
360;DHT22;168;48.872;9.226;2022-09-09T06:26:06;18.50;90.50
360;DHT22;168;48.872;9.226;2022-09-09T06:28:34;18.50;90.50
360;DHT22;168;48.872;9.226;2022-09-09T06:31:05;18.60;90.40
360;DHT22;168;48.872;9.226;2022-09-09T06:33:33;18.70;90.30
360;DHT22;168;48.872;9.226;2022-09-09T06:36:02;18.80;90.00
360;DHT22;168;48.872;9.226;2022-09-09T06:38:31;18.90;90.10
360;DHT22;168;48.872;9.226;2022-09-09T06:40:59;19.00;90.10
360;DHT22;168;48.872;9.226;2022-09-09T06:43:28;19.10;89.80
360;DHT22;168;48.872;9.226;2022-09-09T06:45:56;19.20;89.50
360;DHT22;168;48.872;9.226;2022-09-09T06:48:26;19.30;89.10
360;DHT22;168;48.872;9.226;2022-09-09T06:51:00;19.40;88.90
360;DHT22;168;48.872;9.226;2022-09-09T06:53:28;19.50;88.80
360;DHT22;168;48.872;9.226;2022-09-09T06:55:56;19.60;87.20
360;DHT22;168;48.872;9.226;2022-09-09T06:58:23;19.60;87.30
360;DHT22;168;48.872;9.226;2022-09-09T07:00:50;19.60;86.90
360;DHT22;168;48.872;9.226;2022-09-09T07:03:18;19.60;86.70
360;DHT22;168;48.872;9.226;2022-09-09T07:05:55;19.70;86.60
360;DHT22;168;48.872;9.226;2022-09-09T07:08:23;19.80;86.50
360;DHT22;168;48.872;9.226;2022-09-09T07:10:51;19.80;85.90
360;DHT22;168;48.872;9.226;2022-09-09T07:13:23;19.90;85.90
360;DHT22;168;48.872;9.226;2022-09-09T07:15:51;20.00;86.50
360;DHT22;168;48.872;9.226;2022-09-09T07:18:19;20.10;86.60
360;DHT22;168;48.872;9.226;2022-09-09T07:20:54;20.20;86.50
360;DHT22;168;48.872;9.226;2022-09-09T07:23:23;20.30;86.70
360;DHT22;168;48.872;9.226;2022-09-09T07:25:50;20.40;86.60
360;DHT22;168;48.872;9.226;2022-09-09T07:28:19;20.50;85.90
360;DHT22;168;48.872;9.226;2022-09-09T07:30:53;20.60;85.40
360;DHT22;168;48.872;9.226;2022-09-09T07:33:20;20.70;84.70
360;DHT22;168;48.872;9.226;2022-09-09T07:35:48;20.80;84.20
360;DHT22;168;48.872;9.226;2022-09-09T07:38:17;20.80;84.60
360;DHT22;168;48.872;9.226;2022-09-09T07:40:45;20.90;84.40
360;DHT22;168;48.872;9.226;2022-09-09T07:43:13;21.00;83.90
360;DHT22;168;48.872;9.226;2022-09-09T07:45:40;21.10;84.10
360;DHT22;168;48.872;9.226;2022-09-09T07:48:10;21.10;84.00
360;DHT22;168;48.872;9.226;2022-09-09T07:50:38;21.20;83.00
360;DHT22;168;48.872;9.226;2022-09-09T07:53:05;21.30;82.90
360;DHT22;168;48.872;9.226;2022-09-09T07:55:34;21.30;81.90
360;DHT22;168;48.872;9.226;2022-09-09T07:58:01;21.40;81.90
360;DHT22;168;48.872;9.226;2022-09-09T08:00:29;21.50;82.20
360;DHT22;168;48.872;9.226;2022-09-09T08:02:57;21.50;81.50
360;DHT22;168;48.872;9.226;2022-09-09T08:05:26;21.40;81.80
360;DHT22;168;48.872;9.226;2022-09-09T08:07:54;21.40;81.10
360;DHT22;168;48.872;9.226;2022-09-09T08:10:22;21.30;81.70
360;DHT22;168;48.872;9.226;2022-09-09T08:12:50;21.30;81.80
360;DHT22;168;48.872;9.226;2022-09-09T08:15:19;21.30;82.00
360;DHT22;168;48.872;9.226;2022-09-09T08:17:49;21.30;81.40
360;DHT22;168;48.872;9.226;2022-09-09T08:20:17;21.30;81.80
360;DHT22;168;48.872;9.226;2022-09-09T08:22:44;21.30;82.50
360;DHT22;168;48.872;9.226;2022-09-09T08:25:14;21.20;83.00
360;DHT22;168;48.872;9.226;2022-09-09T08:27:42;21.20;82.40
360;DHT22;168;48.872;9.226;2022-09-09T08:30:11;21.20;82.50
360;DHT22;168;48.872;9.226;2022-09-09T08:32:40;21.30;82.20
360;DHT22;168;48.872;9.226;2022-09-09T08:35:08;21.40;81.10
360;DHT22;168;48.872;9.226;2022-09-09T08:37:35;21.50;80.20
360;DHT22;168;48.872;9.226;2022-09-09T08:40:04;21.60;80.20
360;DHT22;168;48.872;9.226;2022-09-09T08:42:38;21.70;80.20
360;DHT22;168;48.872;9.226;2022-09-09T08:45:34;21.80;79.00
360;DHT22;168;48.872;9.226;2022-09-09T08:48:17;21.80;79.10
360;DHT22;168;48.872;9.226;2022-09-09T08:50:49;21.70;78.90
360;DHT22;168;48.872;9.226;2022-09-09T08:53:21;21.60;80.30
360;DHT22;168;48.872;9.226;2022-09-09T08:55:54;21.50;80.50
360;DHT22;168;48.872;9.226;2022-09-09T08:58:26;21.50;81.00
360;DHT22;168;48.872;9.226;2022-09-09T09:01:14;21.60;81.50
360;DHT22;168;48.872;9.226;2022-09-09T09:05:04;21.60;82.00
360;DHT22;168;48.872;9.226;2022-09-09T09:07:25;21.70;81.20
360;DHT22;168;48.872;9.226;2022-09-09T09:10:04;21.70;80.80
360;DHT22;168;48.872;9.226;2022-09-09T09:12:41;21.80;79.60
360;DHT22;168;48.872;9.226;2022-09-09T09:15:19;22.00;79.30
360;DHT22;168;48.872;9.226;2022-09-09T09:17:49;22.30;80.10
360;DHT22;168;48.872;9.226;2022-09-09T09:20:24;22.60;76.50
360;DHT22;168;48.872;9.226;2022-09-09T09:23:01;23.00;72.60
360;DHT22;168;48.872;9.226;2022-09-09T09:25:35;23.00;71.70
360;DHT22;168;48.872;9.226;2022-09-09T09:28:22;22.80;71.50
360;DHT22;168;48.872;9.226;2022-09-09T09:30:54;22.60;72.10
360;DHT22;168;48.872;9.226;2022-09-09T09:33:28;22.60;71.70
360;DHT22;168;48.872;9.226;2022-09-09T09:36:00;22.50;71.50
360;DHT22;168;48.872;9.226;2022-09-09T09:38:29;22.30;71.80
360;DHT22;168;48.872;9.226;2022-09-09T09:41:09;22.10;73.10
360;DHT22;168;48.872;9.226;2022-09-09T09:43:40;22.00;73.90
360;DHT22;168;48.872;9.226;2022-09-09T09:46:20;21.90;73.60
360;DHT22;168;48.872;9.226;2022-09-09T09:49:01;21.80;74.90
360;DHT22;168;48.872;9.226;2022-09-09T09:51:31;21.70;75.70
360;DHT22;168;48.872;9.226;2022-09-09T09:54:28;21.70;75.90
360;DHT22;168;48.872;9.226;2022-09-09T09:57:14;21.80;76.50
360;DHT22;168;48.872;9.226;2022-09-09T09:59:48;21.80;71.10
360;DHT22;168;48.872;9.226;2022-09-09T10:02:19;21.90;71.00
360;DHT22;168;48.872;9.226;2022-09-09T10:04:48;22.00;70.20
360;DHT22;168;48.872;9.226;2022-09-09T10:07:19;22.10;69.60
360;DHT22;168;48.872;9.226;2022-09-09T10:09:57;22.20;70.00
360;DHT22;168;48.872;9.226;2022-09-09T10:13:24;22.40;70.00
360;DHT22;168;48.872;9.226;2022-09-09T10:16:13;22.60;70.10
360;DHT22;168;48.872;9.226;2022-09-09T10:18:52;22.80;67.00
360;DHT22;168;48.872;9.226;2022-09-09T10:21:36;22.80;67.10
360;DHT22;168;48.872;9.226;2022-09-09T10:24:18;22.90;67.50
360;DHT22;168;48.872;9.226;2022-09-09T10:26:55;23.00;66.10
360;DHT22;168;48.872;9.226;2022-09-09T10:29:38;22.90;66.20
360;DHT22;168;48.872;9.226;2022-09-09T10:32:28;22.90;65.40
360;DHT22;168;48.872;9.226;2022-09-09T10:35:01;22.90;65.80
360;DHT22;168;48.872;9.226;2022-09-09T10:37:41;22.90;66.20
360;DHT22;168;48.872;9.226;2022-09-09T10:40:24;22.80;66.60
360;DHT22;168;48.872;9.226;2022-09-09T10:43:04;22.70;67.10
360;DHT22;168;48.872;9.226;2022-09-09T10:45:39;22.60;67.40
360;DHT22;168;48.872;9.226;2022-09-09T10:48:30;22.80;68.40
360;DHT22;168;48.872;9.226;2022-09-09T10:51:23;23.20;66.20
360;DHT22;168;48.872;9.226;2022-09-09T10:54:07;23.60;66.40
360;DHT22;168;48.872;9.226;2022-09-09T10:56:40;24.00;64.00
360;DHT22;168;48.872;9.226;2022-09-09T10:59:22;24.20;63.90
360;DHT22;168;48.872;9.226;2022-09-09T11:01:57;24.30;63.70
360;DHT22;168;48.872;9.226;2022-09-09T11:04:31;24.40;63.20
360;DHT22;168;48.872;9.226;2022-09-09T11:07:06;24.00;64.80
360;DHT22;168;48.872;9.226;2022-09-09T11:09:49;23.40;67.00
360;DHT22;168;48.872;9.226;2022-09-09T11:12:23;22.90;69.40
360;DHT22;168;48.872;9.226;2022-09-09T11:14:56;22.40;71.10
360;DHT22;168;48.872;9.226;2022-09-09T11:17:29;22.20;72.60
360;DHT22;168;48.872;9.226;2022-09-09T11:20:01;22.10;73.80
360;DHT22;168;48.872;9.226;2022-09-09T11:22:31;21.70;74.80
360;DHT22;168;48.872;9.226;2022-09-09T11:25:05;21.20;77.20
360;DHT22;168;48.872;9.226;2022-09-09T11:27:40;20.70;84.60
360;DHT22;168;48.872;9.226;2022-09-09T11:30:19;19.40;90.50
360;DHT22;168;48.872;9.226;2022-09-09T11:35:57;17.40;89.30
360;DHT22;168;48.872;9.226;2022-09-09T11:38:31;16.90;88.50
360;DHT22;168;48.872;9.226;2022-09-09T11:41:04;16.70;86.00
360;DHT22;168;48.872;9.226;2022-09-09T11:43:39;16.60;86.30
360;DHT22;168;48.872;9.226;2022-09-09T11:46:08;16.70;86.30
360;DHT22;168;48.872;9.226;2022-09-09T11:48:38;16.90;90.90
360;DHT22;168;48.872;9.226;2022-09-09T11:51:10;17.00;90.20
360;DHT22;168;48.872;9.226;2022-09-09T11:53:49;17.30;89.30
360;DHT22;168;48.872;9.226;2022-09-09T11:56:29;17.60;90.70
360;DHT22;168;48.872;9.226;2022-09-09T11:59:00;17.90;91.70
360;DHT22;168;48.872;9.226;2022-09-09T12:01:34;18.10;91.30
360;DHT22;168;48.872;9.226;2022-09-09T12:04:30;18.50;92.70
360;DHT22;168;48.872;9.226;2022-09-09T12:07:01;18.90;92.90
360;DHT22;168;48.872;9.226;2022-09-09T12:09:36;19.10;92.20
360;DHT22;168;48.872;9.226;2022-09-09T12:12:25;19.40;92.50
360;DHT22;168;48.872;9.226;2022-09-09T12:15:03;19.60;91.00
360;DHT22;168;48.872;9.226;2022-09-09T12:17:48;19.70;90.60
360;DHT22;168;48.872;9.226;2022-09-09T12:20:19;19.80;89.80
360;DHT22;168;48.872;9.226;2022-09-09T12:22:59;20.00;89.80
360;DHT22;168;48.872;9.226;2022-09-09T12:25:46;20.20;89.90
360;DHT22;168;48.872;9.226;2022-09-09T12:28:18;20.50;88.20
360;DHT22;168;48.872;9.226;2022-09-09T12:30:52;20.80;87.00
360;DHT22;168;48.872;9.226;2022-09-09T12:36:56;21.00;83.70
360;DHT22;168;48.872;9.226;2022-09-09T12:39:32;21.10;81.30
360;DHT22;168;48.872;9.226;2022-09-09T12:42:00;21.00;83.90
360;DHT22;168;48.872;9.226;2022-09-09T12:44:31;21.10;82.80
360;DHT22;168;48.872;9.226;2022-09-09T12:47:01;21.10;80.80
360;DHT22;168;48.872;9.226;2022-09-09T12:49:31;21.10;80.10
360;DHT22;168;48.872;9.226;2022-09-09T12:52:06;21.00;78.70
360;DHT22;168;48.872;9.226;2022-09-09T12:54:45;20.90;76.50
360;DHT22;168;48.872;9.226;2022-09-09T12:57:14;20.90;75.70
360;DHT22;168;48.872;9.226;2022-09-09T12:59:48;21.00;76.20
360;DHT22;168;48.872;9.226;2022-09-09T13:02:20;21.10;74.20
360;DHT22;168;48.872;9.226;2022-09-09T13:04:51;21.10;75.50
360;DHT22;168;48.872;9.226;2022-09-09T13:07:22;21.20;75.80
360;DHT22;168;48.872;9.226;2022-09-09T13:09:53;21.20;75.90
360;DHT22;168;48.872;9.226;2022-09-09T13:12:33;21.30;75.80
360;DHT22;168;48.872;9.226;2022-09-09T13:15:21;21.30;76.50
360;DHT22;168;48.872;9.226;2022-09-09T13:17:55;21.50;75.30
360;DHT22;168;48.872;9.226;2022-09-09T13:20:24;21.50;73.40
360;DHT22;168;48.872;9.226;2022-09-09T13:22:54;21.60;74.10
360;DHT22;168;48.872;9.226;2022-09-09T13:25:26;21.70;73.70
360;DHT22;168;48.872;9.226;2022-09-09T13:27:58;21.90;73.30
360;DHT22;168;48.872;9.226;2022-09-09T13:30:30;22.20;72.00
360;DHT22;168;48.872;9.226;2022-09-09T13:33:03;22.50;71.80
360;DHT22;168;48.872;9.226;2022-09-09T13:35:32;22.80;70.70
360;DHT22;168;48.872;9.226;2022-09-09T13:38:07;23.00;68.60
360;DHT22;168;48.872;9.226;2022-09-09T13:40:35;23.20;68.10
360;DHT22;168;48.872;9.226;2022-09-09T13:43:05;23.30;66.90
360;DHT22;168;48.872;9.226;2022-09-09T13:45:38;23.30;68.70
360;DHT22;168;48.872;9.226;2022-09-09T13:48:10;23.40;65.30
360;DHT22;168;48.872;9.226;2022-09-09T13:50:39;23.30;65.10
360;DHT22;168;48.872;9.226;2022-09-09T13:53:11;23.20;66.60
360;DHT22;168;48.872;9.226;2022-09-09T13:55:38;23.20;65.30
360;DHT22;168;48.872;9.226;2022-09-09T13:58:14;23.20;64.80
360;DHT22;168;48.872;9.226;2022-09-09T14:00:44;23.30;64.60
360;DHT22;168;48.872;9.226;2022-09-09T14:03:12;23.40;63.40
360;DHT22;168;48.872;9.226;2022-09-09T14:05:40;23.40;63.60
360;DHT22;168;48.872;9.226;2022-09-09T14:08:15;23.50;63.80
360;DHT22;168;48.872;9.226;2022-09-09T14:10:44;23.70;63.60
360;DHT22;168;48.872;9.226;2022-09-09T14:13:11;23.80;62.80
360;DHT22;168;48.872;9.226;2022-09-09T14:15:42;24.10;62.10
360;DHT22;168;48.872;9.226;2022-09-09T14:18:11;24.10;60.70
360;DHT22;168;48.872;9.226;2022-09-09T14:20:40;24.10;60.70
360;DHT22;168;48.872;9.226;2022-09-09T14:23:10;23.90;60.20
360;DHT22;168;48.872;9.226;2022-09-09T14:25:44;23.90;60.80
360;DHT22;168;48.872;9.226;2022-09-09T14:28:13;24.10;60.60
360;DHT22;168;48.872;9.226;2022-09-09T14:30:42;24.30;59.20
360;DHT22;168;48.872;9.226;2022-09-09T14:33:13;24.40;59.70
360;DHT22;168;48.872;9.226;2022-09-09T14:35:41;24.50;59.50
360;DHT22;168;48.872;9.226;2022-09-09T14:38:09;24.60;59.10
360;DHT22;168;48.872;9.226;2022-09-09T14:40:37;24.70;59.30
360;DHT22;168;48.872;9.226;2022-09-09T14:43:05;24.90;58.90
360;DHT22;168;48.872;9.226;2022-09-09T14:45:33;24.90;57.50
360;DHT22;168;48.872;9.226;2022-09-09T14:48:03;24.80;58.70
360;DHT22;168;48.872;9.226;2022-09-09T14:50:32;24.80;57.70
360;DHT22;168;48.872;9.226;2022-09-09T14:53:00;24.60;58.30
360;DHT22;168;48.872;9.226;2022-09-09T14:55:28;24.70;58.00
360;DHT22;168;48.872;9.226;2022-09-09T14:57:55;24.60;57.90
360;DHT22;168;48.872;9.226;2022-09-09T15:00:22;24.50;57.90
360;DHT22;168;48.872;9.226;2022-09-09T15:02:52;24.40;58.80
360;DHT22;168;48.872;9.226;2022-09-09T15:05:20;24.30;58.90
360;DHT22;168;48.872;9.226;2022-09-09T15:07:49;24.10;58.70
360;DHT22;168;48.872;9.226;2022-09-09T15:10:16;24.00;59.40
360;DHT22;168;48.872;9.226;2022-09-09T15:12:44;24.00;60.10
360;DHT22;168;48.872;9.226;2022-09-09T15:15:12;24.10;59.00
360;DHT22;168;48.872;9.226;2022-09-09T15:17:39;24.20;58.60
360;DHT22;168;48.872;9.226;2022-09-09T15:20:08;24.10;58.50
360;DHT22;168;48.872;9.226;2022-09-09T15:22:35;23.90;58.60
360;DHT22;168;48.872;9.226;2022-09-09T15:25:06;23.80;59.20
360;DHT22;168;48.872;9.226;2022-09-09T15:27:34;23.60;59.70
360;DHT22;168;48.872;9.226;2022-09-09T15:30:02;23.40;60.30
360;DHT22;168;48.872;9.226;2022-09-09T15:32:30;23.10;60.60
360;DHT22;168;48.872;9.226;2022-09-09T15:34:58;23.00;60.40
360;DHT22;168;48.872;9.226;2022-09-09T15:37:27;22.90;60.60
360;DHT22;168;48.872;9.226;2022-09-09T15:39:54;22.80;60.60
360;DHT22;168;48.872;9.226;2022-09-09T15:42:26;22.70;60.70
360;DHT22;168;48.872;9.226;2022-09-09T15:44:53;22.70;61.10
360;DHT22;168;48.872;9.226;2022-09-09T15:47:21;22.60;61.30
360;DHT22;168;48.872;9.226;2022-09-09T15:49:48;22.70;61.60
360;DHT22;168;48.872;9.226;2022-09-09T15:52:16;22.70;62.10
360;DHT22;168;48.872;9.226;2022-09-09T15:54:43;22.70;62.10
360;DHT22;168;48.872;9.226;2022-09-09T15:57:14;22.70;61.50
360;DHT22;168;48.872;9.226;2022-09-09T15:59:42;22.50;62.20
360;DHT22;168;48.872;9.226;2022-09-09T16:02:11;22.40;62.60
360;DHT22;168;48.872;9.226;2022-09-09T16:04:38;22.30;62.80
360;DHT22;168;48.872;9.226;2022-09-09T16:07:06;22.30;63.40
360;DHT22;168;48.872;9.226;2022-09-09T16:09:34;22.30;63.90
360;DHT22;168;48.872;9.226;2022-09-09T16:12:05;22.20;63.80
360;DHT22;168;48.872;9.226;2022-09-09T16:14:35;22.20;64.30
360;DHT22;168;48.872;9.226;2022-09-09T16:17:06;22.10;64.70
360;DHT22;168;48.872;9.226;2022-09-09T16:19:34;22.00;64.80
360;DHT22;168;48.872;9.226;2022-09-09T16:22:02;21.90;65.50
360;DHT22;168;48.872;9.226;2022-09-09T16:24:30;21.80;66.00
360;DHT22;168;48.872;9.226;2022-09-09T16:26:58;21.60;67.10
360;DHT22;168;48.872;9.226;2022-09-09T16:29:25;21.60;67.90
360;DHT22;168;48.872;9.226;2022-09-09T16:31:54;21.00;68.00
360;DHT22;168;48.872;9.226;2022-09-09T16:34:23;20.40;69.00
360;DHT22;168;48.872;9.226;2022-09-09T16:36:51;19.90;69.90
360;DHT22;168;48.872;9.226;2022-09-09T16:39:20;19.60;70.40
360;DHT22;168;48.872;9.226;2022-09-09T16:41:49;19.30;73.60
360;DHT22;168;48.872;9.226;2022-09-09T16:44:17;18.90;76.70
360;DHT22;168;48.872;9.226;2022-09-09T16:46:46;18.50;80.60
360;DHT22;168;48.872;9.226;2022-09-09T16:49:14;18.10;82.40
360;DHT22;168;48.872;9.226;2022-09-09T16:51:45;17.90;83.20
360;DHT22;168;48.872;9.226;2022-09-09T16:54:18;17.80;83.90
360;DHT22;168;48.872;9.226;2022-09-09T16:56:47;17.70;84.70
360;DHT22;168;48.872;9.226;2022-09-09T16:59:17;17.70;89.10
360;DHT22;168;48.872;9.226;2022-09-09T17:01:46;17.40;90.80
360;DHT22;168;48.872;9.226;2022-09-09T17:04:21;17.20;91.60
360;DHT22;168;48.872;9.226;2022-09-09T17:06:52;17.00;92.20
360;DHT22;168;48.872;9.226;2022-09-09T17:09:21;16.80;92.80
360;DHT22;168;48.872;9.226;2022-09-09T17:11:49;16.80;92.30